Time;durP1;ratioP1;P1;durP2;ratioP2;P2;SDS_P1;SDS_P2;PMS_P1;PMS_P2;Temp;Humidity;BMP_temperature;BMP_pressure;BME280_temperature;BME280_humidity;BME280_pressure;Samples;Min_cycle;Max_cycle;Signal;HPM_P1;HPM_P2
2023/05/19 00:01:27;;;;;;;15.73;9.30;;;;;;;9.92;100.00;102562.13;5280143;28;20393;-74
2023/05/19 00:04:02;;;;;;;14.68;9.20;;;;;;;9.97;100.00;102565.34;5279838;28;20020;-74
2023/05/19 00:06:35;;;;;;;15.10;8.50;;;;;;;9.89;100.00;102564.09;5279386;28;20020;-74
2023/05/19 00:09:08;;;;;;;12.18;8.57;;;;;;;9.93;100.00;102555.84;5278937;28;20498;-74
2023/05/19 00:11:40;;;;;;;17.67;8.80;;;;;;;9.79;100.00;102562.03;5279303;28;20035;-74
2023/05/19 00:14:11;;;;;;;14.75;9.07;;;;;;;9.83;100.00;102557.34;5279411;28;20025;-74
2023/05/19 00:16:43;;;;;;;15.27;8.77;;;;;;;9.79;100.00;102559.34;5279459;28;20024;-74
2023/05/19 00:19:15;;;;;;;16.05;9.35;;;;;;;9.81;100.00;102554.78;5281323;28;20024;-74
2023/05/19 00:21:47;;;;;;;12.93;8.27;;;;;;;9.81;100.00;102557.44;5283712;28;20035;-75
2023/05/19 00:24:18;;;;;;;14.90;8.68;;;;;;;9.81;100.00;102552.13;5279178;28;20099;-74
2023/05/19 00:26:50;;;;;;;14.80;8.60;;;;;;;9.78;100.00;102548.78;5280290;28;20055;-73
2023/05/19 00:29:21;;;;;;;13.80;8.50;;;;;;;9.74;100.00;102549.94;5277631;28;20051;-74
2023/05/19 00:31:52;;;;;;;10.15;8.23;;;;;;;9.75;100.00;102538.34;5284768;28;20044;-74
2023/05/19 00:34:24;;;;;;;11.95;8.75;;;;;;;9.70;100.00;102545.75;5282222;28;20019;-74
2023/05/19 00:36:55;;;;;;;10.30;8.65;;;;;;;9.65;100.00;102538.91;5278654;28;20128;-74
2023/05/19 00:39:26;;;;;;;13.82;8.63;;;;;;;9.70;100.00;102535.09;5283043;28;20366;-74
2023/05/19 00:41:57;;;;;;;14.43;8.88;;;;;;;9.67;100.00;102538.81;5282344;28;20466;-74
2023/05/19 00:44:29;;;;;;;10.52;8.52;;;;;;;9.65;100.00;102530.91;5282767;28;21045;-73
2023/05/19 00:47:00;;;;;;;14.15;8.15;;;;;;;9.57;100.00;102529.66;5280761;28;20020;-74
2023/05/19 00:49:32;;;;;;;11.95;8.35;;;;;;;9.60;100.00;102530.31;5281526;28;20032;-73
2023/05/19 00:52:05;;;;;;;12.30;8.70;;;;;;;9.55;100.00;102518.25;5281412;28;20519;-73
2023/05/19 00:54:36;;;;;;;14.95;9.82;;;;;;;9.53;100.00;102528.16;5278582;28;20029;-74
2023/05/19 00:57:08;;;;;;;15.75;8.50;;;;;;;9.50;100.00;102531.84;5285530;28;20020;-74
2023/05/19 00:59:39;;;;;;;15.23;8.80;;;;;;;9.44;100.00;102532.22;5276715;28;20132;-74
2023/05/19 01:02:10;;;;;;;9.25;7.78;;;;;;;9.47;100.00;102540.03;5282084;28;20607;-73
2023/05/19 01:04:43;;;;;;;13.98;8.85;;;;;;;9.48;100.00;102536.41;5278405;28;20020;-73
2023/05/19 01:07:15;;;;;;;13.13;8.38;;;;;;;9.45;100.00;102533.97;5278196;28;20020;-74
2023/05/19 01:09:46;;;;;;;11.63;9.13;;;;;;;9.36;100.00;102531.81;5278952;28;20447;-73
2023/05/19 01:12:17;;;;;;;13.82;8.07;;;;;;;9.31;100.00;102533.91;5277735;28;20108;-73
2023/05/19 01:14:49;;;;;;;16.70;8.48;;;;;;;9.33;100.00;102529.38;5282228;28;20488;-74
2023/05/19 01:17:37;;;;;;;14.68;8.45;;;;;;;9.34;100.00;102529.25;5282760;28;20393;-74
2023/05/19 01:20:18;;;;;;;20.15;9.45;;;;;;;9.33;100.00;102532.03;5278830;28;20024;-74
2023/05/19 01:23:13;;;;;;;11.90;7.88;;;;;;;9.33;100.00;102532.03;5277975;28;20505;-73
2023/05/19 01:26:03;;;;;;;13.52;8.40;;;;;;;9.29;100.00;102539.31;5280241;28;20029;-74
2023/05/19 01:28:54;;;;;;;12.43;8.15;;;;;;;9.24;100.00;102528.13;5280949;28;20390;-74
2023/05/19 01:31:26;;;;;;;12.90;7.35;;;;;;;9.10;100.00;102528.94;5280107;28;20109;-74
2023/05/19 01:33:59;;;;;;;10.68;8.05;;;;;;;9.11;100.00;102529.81;5278377;28;20060;-74
2023/05/19 01:36:30;;;;;;;12.27;7.07;;;;;;;9.07;100.00;102531.78;5278176;28;20238;-74
2023/05/19 01:39:02;;;;;;;13.68;7.57;;;;;;;9.05;100.00;102531.88;5279855;28;20028;-74
2023/05/19 01:41:33;;;;;;;11.57;7.43;;;;;;;9.00;100.00;102530.44;5279822;28;20032;-74
2023/05/19 01:44:05;;;;;;;13.60;7.65;;;;;;;9.00;100.00;102528.63;5285700;28;20146;-74
2023/05/19 01:46:37;;;;;;;10.07;6.82;;;;;;;9.02;100.00;102520.56;5279690;28;20100;-74
2023/05/19 01:49:09;;;;;;;13.35;7.45;;;;;;;8.98;100.00;102525.22;5278490;28;20025;-74
2023/05/19 01:51:42;;;;;;;10.32;7.32;;;;;;;8.98;100.00;102513.72;5281923;28;20036;-75
2023/05/19 01:54:13;;;;;;;14.25;7.30;;;;;;;8.98;100.00;102519.03;5280512;28;20535;-75
2023/05/19 01:56:59;;;;;;;11.98;8.75;;;;;;;8.96;100.00;102524.44;5283792;28;20021;-75
2023/05/19 01:59:50;;;;;;;12.90;7.32;;;;;;;8.94;100.00;102518.38;5277901;28;20051;-75
2023/05/19 02:02:48;;;;;;;12.85;7.55;;;;;;;8.93;100.00;102511.31;5277127;28;20047;-74
2023/05/19 02:05:39;;;;;;;13.27;8.05;;;;;;;8.89;100.00;102507.13;5269463;28;20054;-74
2023/05/19 02:08:18;;;;;;;10.70;7.20;;;;;;;8.86;100.00;102507.31;5277672;28;20462;-74
2023/05/19 02:10:56;;;;;;;11.75;7.47;;;;;;;8.84;100.00;102510.06;5278735;28;20074;-74
2023/05/19 02:13:32;;;;;;;10.85;7.53;;;;;;;8.75;100.00;102510.59;5277563;28;20493;-74
2023/05/19 02:16:04;;;;;;;14.10;7.50;;;;;;;8.70;100.00;102516.19;5278408;28;20044;-74
2023/05/19 02:18:36;;;;;;;11.57;7.45;;;;;;;8.71;100.00;102511.72;5277346;28;20029;-74
2023/05/19 02:21:11;;;;;;;11.65;7.88;;;;;;;8.71;100.00;102509.03;5277376;28;20028;-74
2023/05/19 02:23:43;;;;;;;12.00;7.37;;;;;;;8.69;100.00;102514.44;5277709;28;20482;-74
2023/05/19 02:26:14;;;;;;;13.68;8.07;;;;;;;8.71;100.00;102509.03;5279216;28;20279;-74
2023/05/19 02:28:45;;;;;;;12.75;7.55;;;;;;;8.60;100.00;102507.00;5277701;28;20025;-74
2023/05/19 02:31:17;;;;;;;10.20;7.55;;;;;;;8.62;100.00;102509.59;5276685;28;20516;-74
2023/05/19 02:33:48;;;;;;;13.27;7.57;;;;;;;8.62;100.00;102510.44;5280668;28;20414;-74
2023/05/19 02:36:19;;;;;;;10.85;8.15;;;;;;;8.55;100.00;102505.56;5277117;28;20017;-75
2023/05/19 02:38:51;;;;;;;11.18;7.85;;;;;;;8.58;100.00;102502.75;5279714;28;20032;-74
2023/05/19 02:41:22;;;;;;;13.45;7.78;;;;;;;8.51;100.00;102500.44;5280471;28;20021;-74
2023/05/19 02:43:53;;;;;;;11.20;8.15;;;;;;;8.52;100.00;102498.66;5280810;28;20024;-74
2023/05/19 02:46:24;;;;;;;12.43;7.85;;;;;;;8.47;100.00;102504.22;5278460;28;20494;-74
2023/05/19 02:48:56;;;;;;;12.05;7.53;;;;;;;8.48;100.00;102497.94;5277840;28;20031;-74
2023/05/19 02:51:27;;;;;;;15.82;8.82;;;;;;;8.42;100.00;102500.97;5284236;28;20032;-74
2023/05/19 02:53:58;;;;;;;13.15;8.52;;;;;;;8.46;100.00;102505.16;5281330;28;20039;-75
2023/05/19 02:56:29;;;;;;;14.65;8.13;;;;;;;8.41;100.00;102493.88;5283014;28;20561;-74
2023/05/19 02:59:01;;;;;;;18.02;8.85;;;;;;;8.37;100.00;102488.84;5279574;28;20040;-74
2023/05/19 03:01:32;;;;;;;12.98;8.18;;;;;;;8.34;100.00;102492.53;5282160;28;20028;-75
2023/05/19 03:04:04;;;;;;;13.18;7.82;;;;;;;8.37;100.00;102492.34;5280541;28;20541;-75
2023/05/19 03:06:35;;;;;;;13.57;7.80;;;;;;;8.31;100.00;102498.88;5280163;28;20083;-74
2023/05/19 03:09:07;;;;;;;16.13;8.32;;;;;;;8.31;100.00;102496.22;5279961;28;20798;-74
2023/05/19 03:11:38;;;;;;;11.07;8.77;;;;;;;8.27;100.00;102493.81;5284754;28;20020;-75
2023/05/19 03:14:10;;;;;;;17.38;8.07;;;;;;;8.22;100.00;102494.09;5281839;28;20026;-74
2023/05/19 03:16:42;;;;;;;14.30;7.85;;;;;;;8.11;100.00;102500.00;5280217;28;20028;-75
2023/05/19 03:19:13;;;;;;;12.45;7.88;;;;;;;8.15;100.00;102495.34;5279907;28;20024;-74
2023/05/19 03:21:45;;;;;;;19.85;12.15;;;;;;;8.10;100.00;102502.75;5288326;28;20038;-73
2023/05/19 03:24:16;;;;;;;15.23;9.90;;;;;;;8.10;100.00;102498.31;5279759;28;20029;-74
2023/05/19 03:26:48;;;;;;;12.98;8.55;;;;;;;8.06;100.00;102498.53;5281803;28;20028;-74
2023/05/19 03:29:20;;;;;;;13.77;8.25;;;;;;;8.01;100.00;102505.91;5280012;28;20099;-74
2023/05/19 03:31:51;;;;;;;14.63;8.32;;;;;;;8.05;100.00;102507.47;5283429;28;20773;-74
2023/05/19 03:34:22;;;;;;;9.75;7.82;;;;;;;7.97;100.00;102501.72;5280550;28;20035;-74
2023/05/19 03:36:54;;;;;;;11.38;7.63;;;;;;;7.99;100.00;102508.66;5281945;28;20144;-74
2023/05/19 03:39:25;;;;;;;13.15;8.82;;;;;;;7.91;100.00;102509.09;5279378;28;20031;-74
2023/05/19 03:41:56;;;;;;;15.13;8.52;;;;;;;7.90;100.00;102509.16;5280746;28;20024;-74
2023/05/19 03:44:27;;;;;;;11.65;8.57;;;;;;;7.90;100.00;102511.81;5280228;28;20037;-74
2023/05/19 03:46:59;;;;;;;14.02;9.02;;;;;;;7.94;100.00;102524.00;5281175;28;20028;-74
2023/05/19 03:49:30;;;;;;;12.43;8.88;;;;;;;7.90;100.00;102519.78;5280846;28;20075;-74
2023/05/19 03:52:02;;;;;;;10.85;8.35;;;;;;;7.88;100.00;102522.53;5280043;28;20025;-74
2023/05/19 03:54:33;;;;;;;13.63;9.10;;;;;;;7.82;100.00;102519.34;5280830;28;20562;-70
2023/05/19 03:57:04;;;;;;;17.05;9.32;;;;;;;7.85;100.00;102519.19;5282681;28;20021;-68
2023/05/19 03:59:36;;;;;;;11.00;8.68;;;;;;;7.81;100.00;102520.31;5279174;28;20466;-68
2023/05/19 04:02:07;;;;;;;13.63;8.82;;;;;;;7.78;100.00;102510.69;5281789;28;20036;-68
2023/05/19 04:04:38;;;;;;;16.92;9.73;;;;;;;7.85;100.00;102511.22;5283323;28;20516;-68
2023/05/19 04:07:10;;;;;;;16.42;9.48;;;;;;;7.80;100.00;102510.59;5281152;28;20536;-69
2023/05/19 04:09:41;;;;;;;12.80;8.88;;;;;;;7.87;100.00;102515.53;5279887;28;20033;-68
2023/05/19 04:12:13;;;;;;;14.82;8.93;;;;;;;7.86;100.00;102510.28;5279198;28;20020;-68
2023/05/19 04:14:44;;;;;;;16.05;9.18;;;;;;;7.89;100.00;102516.28;5279263;28;20032;-68
2023/05/19 04:17:15;;;;;;;16.63;9.68;;;;;;;7.88;100.00;102522.53;5279278;28;20066;-68
2023/05/19 04:19:47;;;;;;;14.82;9.45;;;;;;;7.94;100.00;102508.94;5279475;28;20450;-68
2023/05/19 04:22:18;;;;;;;13.68;9.25;;;;;;;7.87;100.00;102507.56;5278608;28;20055;-68
2023/05/19 04:24:51;;;;;;;17.88;9.82;;;;;;;7.89;100.00;102510.13;5279554;28;20028;-68
2023/05/19 04:27:22;;;;;;;19.17;10.63;;;;;;;7.89;100.00;102505.66;5285412;28;20032;-68
2023/05/19 04:29:54;;;;;;;18.52;10.75;;;;;;;7.95;100.00;102513.28;5278814;28;20086;-68
2023/05/19 04:32:26;;;;;;;22.00;12.13;;;;;;;7.97;100.00;102515.00;5280288;28;20036;-68
2023/05/19 04:34:57;;;;;;;19.80;12.35;;;;;;;7.98;100.00;102519.34;5281237;28;20373;-68
2023/05/19 04:37:28;;;;;;;18.98;11.90;;;;;;;7.95;100.00;102518.59;5278614;28;20032;-68
2023/05/19 04:40:00;;;;;;;23.00;12.15;;;;;;;8.03;100.00;102520.84;5278609;28;20382;-69
2023/05/19 04:42:31;;;;;;;17.15;11.60;;;;;;;8.03;100.00;102515.53;5280743;28;20436;-68
2023/05/19 04:45:04;;;;;;;15.68;10.68;;;;;;;8.03;100.00;102514.66;5282453;28;20379;-68
2023/05/19 04:47:36;;;;;;;21.98;11.80;;;;;;;8.07;100.00;102516.22;5281731;28;20478;-68
2023/05/19 04:50:09;;;;;;;16.10;10.75;;;;;;;8.09;100.00;102514.31;5279004;28;20064;-68
2023/05/19 04:52:41;;;;;;;17.02;11.05;;;;;;;8.14;100.00;102517.59;5283878;28;20162;-68
2023/05/19 04:55:12;;;;;;;16.75;11.10;;;;;;;8.20;100.00;102519.03;5278489;28;20111;-68
2023/05/19 04:57:44;;;;;;;16.70;10.85;;;;;;;8.21;100.00;102518.97;5282151;28;20020;-68
2023/05/19 05:00:16;;;;;;;19.10;11.90;;;;;;;8.27;100.00;102523.91;5282796;28;20066;-68
2023/05/19 05:02:47;;;;;;;21.35;12.73;;;;;;;8.36;100.00;102517.22;5277962;28;20169;-68
2023/05/19 05:05:19;;;;;;;18.83;11.98;;;;;;;8.31;100.00;102525.47;5282964;28;20035;-68
2023/05/19 05:07:52;;;;;;;17.80;12.00;;;;;;;8.36;100.00;102522.53;5279355;28;20222;-69
2023/05/19 05:10:24;;;;;;;17.95;11.00;;;;;;;8.37;100.00;102526.91;5278318;28;20017;-68
2023/05/19 05:12:56;;;;;;;15.02;10.52;;;;;;;8.49;100.00;102522.75;5278405;28;20099;-69
2023/05/19 05:15:28;;;;;;;16.38;10.48;;;;;;;8.51;100.00;102519.03;5287633;28;20651;-69
2023/05/19 05:18:00;;;;;;;12.75;9.63;;;;;;;8.53;100.00;102521.63;5278717;28;20029;-69
2023/05/19 05:20:31;;;;;;;16.55;10.63;;;;;;;8.57;100.00;102520.47;5277994;28;20504;-69
2023/05/19 05:23:03;;;;;;;19.60;10.25;;;;;;;8.63;100.00;102520.16;5280587;28;20501;-69
2023/05/19 05:25:35;;;;;;;16.45;9.73;;;;;;;8.75;100.00;102523.03;5277608;28;20047;-69
2023/05/19 05:28:07;;;;;;;16.42;11.02;;;;;;;8.79;100.00;102529.91;5289611;28;20027;-68
2023/05/19 05:30:38;;;;;;;15.60;10.10;;;;;;;8.83;100.00;102526.09;5278274;28;20033;-69
2023/05/19 05:33:10;;;;;;;17.98;10.20;;;;;;;8.88;100.00;102537.34;5277995;28;20146;-69
2023/05/19 05:35:41;;;;;;;16.52;10.30;;;;;;;8.96;100.00;102534.22;5283986;28;20020;-69
2023/05/19 05:38:13;;;;;;;15.35;10.88;;;;;;;9.06;100.00;102528.28;5277869;28;20035;-69
2023/05/19 05:40:44;;;;;;;20.73;10.50;;;;;;;9.13;100.00;102539.41;5287755;28;20533;-68
2023/05/19 05:43:15;;;;;;;17.95;10.23;;;;;;;9.21;100.00;102534.47;5288199;28;20020;-68
2023/05/19 05:45:46;;;;;;;13.45;10.27;;;;;;;9.30;100.00;102537.53;5280552;28;20659;-69
2023/05/19 05:48:18;;;;;;;14.68;10.25;;;;;;;9.32;100.00;102531.16;5279264;28;20389;-69
2023/05/19 05:50:51;;;;;;;16.70;9.98;;;;;;;9.42;100.00;102532.31;5279355;28;20028;-69
2023/05/19 05:53:24;;;;;;;15.80;9.80;;;;;;;9.50;100.00;102523.00;5278323;28;20031;-69
2023/05/19 05:55:55;;;;;;;15.13;10.38;;;;;;;9.60;100.00;102533.00;5278415;28;20489;-69
2023/05/19 05:58:27;;;;;;;18.27;10.93;;;;;;;9.68;100.00;102531.66;5278992;28;20075;-69
2023/05/19 06:00:59;;;;;;;18.42;9.85;;;;;;;9.76;100.00;102527.56;5276803;28;20478;-69
2023/05/19 06:03:30;;;;;;;13.48;9.50;;;;;;;9.83;100.00;102531.59;5280528;28;20438;-69
2023/05/19 06:06:02;;;;;;;11.88;9.35;;;;;;;9.91;100.00;102533.75;5277358;28;20110;-69
2023/05/19 06:08:33;;;;;;;12.13;9.45;;;;;;;10.08;100.00;102538.03;5278134;28;20448;-69
2023/05/19 06:11:07;;;;;;;14.05;9.02;;;;;;;10.25;100.00;102544.06;5277788;28;20078;-69
2023/05/19 06:13:41;;;;;;;11.80;8.95;;;;;;;10.27;100.00;102542.16;5277081;28;20036;-69
2023/05/19 06:16:12;;;;;;;14.50;9.70;;;;;;;10.42;100.00;102543.03;5278765;28;20067;-69
2023/05/19 06:18:44;;;;;;;13.90;8.63;;;;;;;10.52;100.00;102536.13;5277019;28;20052;-69
2023/05/19 06:21:16;;;;;;;17.83;8.75;;;;;;;10.68;100.00;102544.84;5282289;28;20032;-69
2023/05/19 06:23:47;;;;;;;12.77;8.43;;;;;;;10.79;100.00;102541.44;5280318;28;20028;-69
2023/05/19 06:26:18;;;;;;;11.95;8.60;;;;;;;10.94;100.00;102539.56;5280539;28;20066;-69
2023/05/19 06:28:50;;;;;;;14.32;9.00;;;;;;;11.10;100.00;102536.72;5282725;28;20588;-69
2023/05/19 06:31:21;;;;;;;16.35;9.48;;;;;;;11.15;100.00;102543.44;5282366;28;20412;-69
2023/05/19 06:33:53;;;;;;;13.95;8.90;;;;;;;11.30;100.00;102546.88;5283642;28;20032;-69
2023/05/19 06:36:24;;;;;;;16.45;9.43;;;;;;;11.60;100.00;102548.38;5282287;28;20073;-68
2023/05/19 06:38:56;;;;;;;12.98;8.23;;;;;;;11.84;100.00;102545.78;5280577;28;20453;-69
2023/05/19 06:41:27;;;;;;;9.52;7.85;;;;;;;11.97;100.00;102542.28;5281707;28;20016;-69
2023/05/19 06:43:59;;;;;;;15.10;7.70;;;;;;;12.23;100.00;102541.25;5284732;28;20043;-69
2023/05/19 06:46:30;;;;;;;13.93;8.93;;;;;;;12.48;100.00;102536.75;5289669;28;20170;-69
2023/05/19 06:49:01;;;;;;;16.58;9.55;;;;;;;12.74;100.00;102534.81;5284158;28;20081;-69
2023/05/19 06:51:34;;;;;;;15.95;9.00;;;;;;;12.92;100.00;102537.94;5281570;28;20454;-69
2023/05/19 06:54:05;;;;;;;13.45;8.07;;;;;;;13.18;100.00;102541.31;5282273;28;20070;-69
2023/05/19 06:56:36;;;;;;;12.88;7.82;;;;;;;13.35;100.00;102539.19;5281530;28;20428;-69
2023/05/19 06:59:07;;;;;;;10.32;7.35;;;;;;;13.57;100.00;102536.53;5280985;28;20036;-69
2023/05/19 07:01:39;;;;;;;14.25;7.20;;;;;;;13.72;100.00;102544.31;5280487;28;20036;-69
2023/05/19 07:04:10;;;;;;;13.93;7.90;;;;;;;13.98;100.00;102531.50;5280536;28;20024;-70
2023/05/19 07:06:41;;;;;;;16.55;8.27;;;;;;;14.26;100.00;102538.16;5282787;28;20025;-69
2023/05/19 07:09:12;;;;;;;13.10;9.32;;;;;;;14.60;100.00;102542.63;5281059;28;20040;-70
2023/05/19 07:11:44;;;;;;;14.50;8.20;;;;;;;14.89;100.00;102537.50;5279845;28;20492;-69
2023/05/19 07:14:15;;;;;;;12.55;7.75;;;;;;;15.02;100.00;102535.47;5280733;28;20025;-70
2023/05/19 07:16:46;;;;;;;13.45;7.60;;;;;;;15.17;100.00;102541.38;5286509;28;20025;-70
2023/05/19 07:19:18;;;;;;;10.10;6.90;;;;;;;15.40;100.00;102530.50;5283937;28;20019;-70
2023/05/19 07:21:49;;;;;;;13.73;7.13;;;;;;;15.59;100.00;102535.13;5280585;28;20387;-69
2023/05/19 07:24:21;;;;;;;12.32;7.55;;;;;;;15.65;100.00;102539.94;5284069;28;20066;-69
2023/05/19 07:26:52;;;;;;;11.88;7.72;;;;;;;15.96;100.00;102534.59;5280152;28;20043;-70
2023/05/19 07:29:24;;;;;;;11.40;6.75;;;;;;;16.24;100.00;102530.25;5279663;28;20608;-70
2023/05/19 07:31:56;;;;;;;12.75;7.32;;;;;;;16.42;100.00;102536.66;5280301;28;20024;-70
2023/05/19 07:34:28;;;;;;;11.43;7.00;;;;;;;16.49;100.00;102539.66;5282041;28;20021;-70
2023/05/19 07:36:59;;;;;;;17.17;7.25;;;;;;;16.74;100.00;102530.19;5279879;28;20118;-70
2023/05/19 07:39:31;;;;;;;9.88;7.28;;;;;;;16.89;100.00;102533.31;5280359;28;20032;-70
2023/05/19 07:42:02;;;;;;;10.38;7.05;;;;;;;17.00;100.00;102535.88;5280011;28;20020;-70
2023/05/19 07:44:33;;;;;;;13.98;6.82;;;;;;;17.44;100.00;102531.78;5282123;28;20032;-70
2023/05/19 07:47:05;;;;;;;11.85;6.35;;;;;;;17.52;100.00;102530.06;5280714;28;20048;-70
2023/05/19 07:49:36;;;;;;;10.02;6.32;;;;;;;17.65;100.00;102516.22;5286182;28;20020;-70
2023/05/19 07:52:07;;;;;;;10.38;6.60;;;;;;;17.91;100.00;102526.38;5281398;28;20028;-70
2023/05/19 07:54:39;;;;;;;8.35;6.00;;;;;;;18.05;100.00;102512.38;5283949;28;20035;-70
2023/05/19 07:57:10;;;;;;;9.10;5.85;;;;;;;17.97;100.00;102527.63;5282448;28;20036;-70
2023/05/19 07:59:41;;;;;;;10.18;6.60;;;;;;;17.98;100.00;102515.81;5279481;28;20017;-70
2023/05/19 08:02:12;;;;;;;10.20;6.18;;;;;;;18.03;100.00;102522.47;5279442;28;20431;-70
2023/05/19 08:04:44;;;;;;;8.07;5.45;;;;;;;18.16;100.00;102523.97;5282067;28;20031;-70
2023/05/19 08:07:15;;;;;;;10.85;5.00;;;;;;;18.38;100.00;102522.69;5279673;28;20029;-70
2023/05/19 08:09:47;;;;;;;9.63;5.78;;;;;;;18.65;100.00;102522.63;5278656;28;20025;-70
2023/05/19 08:12:18;;;;;;;10.88;5.32;;;;;;;18.87;100.00;102515.91;5281468;28;20505;-70
2023/05/19 08:14:50;;;;;;;9.43;5.70;;;;;;;18.89;100.00;102515.75;5281328;28;20028;-70
2023/05/19 08:17:21;;;;;;;9.77;5.30;;;;;;;19.18;100.00;102509.16;5287117;28;20036;-70
2023/05/19 08:19:54;;;;;;;10.43;5.60;;;;;;;19.23;100.00;102513.13;5279139;28;20111;-70
2023/05/19 08:22:25;;;;;;;9.70;5.70;;;;;;;19.49;100.00;102504.13;5281104;28;20433;-70
2023/05/19 08:24:57;;;;;;;9.95;5.47;;;;;;;19.77;100.00;102503.94;5278769;28;20119;-70
2023/05/19 08:27:28;;;;;;;8.45;4.55;;;;;;;20.28;100.00;102509.34;5279427;28;20031;-70
2023/05/19 08:30:00;;;;;;;9.52;5.28;;;;;;;20.62;100.00;102503.84;5280232;28;20123;-70
2023/05/19 08:32:31;;;;;;;7.88;4.60;;;;;;;21.03;100.00;102500.25;5283630;28;20020;-70
2023/05/19 08:35:03;;;;;;;10.25;5.20;;;;;;;21.22;100.00;102499.88;5278682;28;20031;-70
2023/05/19 08:37:36;;;;;;;10.82;5.38;;;;;;;21.36;100.00;102490.19;5279330;28;20091;-69
2023/05/19 08:40:14;;;;;;;9.02;4.97;;;;;;;21.45;100.00;102494.56;5279248;28;20024;-69
2023/05/19 08:42:46;;;;;;;7.53;4.35;;;;;;;21.74;100.00;102492.28;5280960;28;20028;-69
2023/05/19 08:45:17;;;;;;;8.55;4.32;;;;;;;21.52;100.00;102483.88;5281473;28;20028;-69
2023/05/19 08:47:50;;;;;;;10.35;4.00;;;;;;;21.96;100.00;102482.50;5284501;28;20508;-69
2023/05/19 08:50:29;;;;;;;8.25;4.30;;;;;;;22.17;98.29;102479.97;5281167;28;20040;-70
2023/05/19 08:53:03;;;;;;;7.05;3.40;;;;;;;22.38;94.26;102475.81;5279055;28;20035;-70
2023/05/19 08:55:57;;;;;;;8.65;3.80;;;;;;;22.81;94.87;102473.41;5278808;28;20099;-71
2023/05/19 08:58:31;;;;;;;8.02;3.63;;;;;;;22.53;89.24;102475.84;5278294;28;20397;-71
2023/05/19 09:01:05;;;;;;;7.63;3.60;;;;;;;22.25;91.79;102471.78;5282686;28;20020;-71
2023/05/19 09:03:37;;;;;;;8.57;3.83;;;;;;;22.69;89.62;102466.72;5278186;28;20020;-71
2023/05/19 09:06:12;;;;;;;7.20;3.17;;;;;;;22.77;86.52;102469.34;5285813;28;20028;-71
2023/05/19 09:08:43;;;;;;;6.85;2.83;;;;;;;22.89;79.03;102465.16;5278118;28;20119;-70
2023/05/19 09:11:15;;;;;;;13.25;4.47;;;;;;;23.34;80.42;102462.50;5278570;28;20545;-71
2023/05/19 09:13:47;;;;;;;7.25;3.15;;;;;;;23.35;79.97;102450.56;5281705;28;20024;-70
2023/05/19 09:16:18;;;;;;;5.32;1.98;;;;;;;22.97;74.27;102462.34;5278996;28;20051;-70
2023/05/19 09:18:57;;;;;;;11.05;3.20;;;;;;;22.59;75.55;102447.94;5278314;28;20553;-70
2023/05/19 09:21:32;;;;;;;7.10;3.03;;;;;;;22.31;77.74;102445.78;5281295;28;20030;-71
2023/05/19 09:24:07;;;;;;;8.23;2.67;;;;;;;22.61;76.98;102444.00;5281000;28;20025;-71
2023/05/19 09:26:41;;;;;;;9.18;2.28;;;;;;;22.91;72.79;102444.03;5281881;28;20028;-70
2023/05/19 09:29:14;;;;;;;4.85;2.08;;;;;;;22.56;70.77;102453.72;5277631;28;20027;-71
2023/05/19 09:31:54;;;;;;;7.82;2.45;;;;;;;22.69;72.53;102443.09;5278992;28;20036;-71
2023/05/19 09:34:26;;;;;;;7.72;2.50;;;;;;;23.25;74.51;102433.66;5278581;28;20032;-71
2023/05/19 09:36:58;;;;;;;8.50;2.30;;;;;;;23.27;70.36;102423.47;5277966;28;20024;-70
2023/05/19 09:39:31;;;;;;;8.05;2.08;;;;;;;23.04;67.02;102427.94;5280955;28;20432;-71
2023/05/19 09:42:04;;;;;;;5.93;2.65;;;;;;;23.30;64.59;102434.81;5281107;28;20055;-71
2023/05/19 09:44:35;;;;;;;6.18;2.13;;;;;;;23.74;63.70;102441.25;5280101;28;20028;-71
2023/05/19 09:47:08;;;;;;;4.50;2.10;;;;;;;23.60;61.74;102445.69;5283924;28;20082;-70
2023/05/19 09:49:45;;;;;;;8.38;2.67;;;;;;;23.11;62.73;102446.28;5282436;28;20028;-70
2023/05/19 09:52:17;;;;;;;6.53;1.70;;;;;;;23.09;63.48;102443.75;5278141;28;20025;-70
2023/05/19 09:54:50;;;;;;;5.35;2.20;;;;;;;22.85;62.99;102447.53;5279814;28;20485;-69
2023/05/19 09:57:28;;;;;;;7.90;2.25;;;;;;;22.92;63.50;102434.88;5277918;28;20103;-70
2023/05/19 10:00:10;;;;;;;6.40;2.40;;;;;;;23.04;63.50;102448.88;5278593;28;20028;-70
2023/05/19 10:02:44;;;;;;;7.82;2.40;;;;;;;22.65;61.37;102448.06;5286632;28;20172;-70
2023/05/19 10:05:18;;;;;;;7.00;2.40;;;;;;;23.08;64.46;102450.19;5287046;28;20032;-70
2023/05/19 10:07:51;;;;;;;8.48;2.17;;;;;;;23.86;63.32;102434.28;5282811;28;20031;-71
2023/05/19 10:10:23;;;;;;;7.30;2.40;;;;;;;24.07;59.17;102438.03;5282150;28;20108;-70
2023/05/19 10:12:55;;;;;;;7.20;2.17;;;;;;;24.60;56.83;102435.03;5284709;28;20684;-70
2023/05/19 10:15:27;;;;;;;7.07;1.90;;;;;;;25.12;58.25;102430.94;5282636;28;20032;-70
2023/05/19 10:18:00;;;;;;;8.15;2.30;;;;;;;25.10;49.55;102428.44;5285581;28;20409;-70
2023/05/19 10:20:33;;;;;;;5.63;2.10;;;;;;;25.19;49.17;102428.25;5283186;28;20049;-70
2023/05/19 10:23:05;;;;;;;6.65;1.92;;;;;;;25.58;49.97;102426.78;5287522;28;20032;-70
2023/05/19 10:25:37;;;;;;;5.85;1.80;;;;;;;26.21;50.86;102432.88;5281612;28;20465;-70
2023/05/19 10:28:14;;;;;;;4.38;1.95;;;;;;;26.38;48.74;102429.72;5282545;28;20029;-70
2023/05/19 10:30:49;;;;;;;8.93;2.63;;;;;;;26.01;47.23;102427.34;5285050;28;20067;-70
2023/05/19 10:33:34;;;;;;;7.70;2.20;;;;;;;25.74;48.23;102428.34;5282324;28;20033;-70
2023/05/19 10:36:29;;;;;;;5.63;2.17;;;;;;;25.42;50.10;102419.78;5287299;28;20450;-70
2023/05/19 10:39:06;;;;;;;6.22;2.20;;;;;;;25.55;48.87;102402.63;5285280;28;20020;-70
2023/05/19 10:41:57;;;;;;;8.70;2.53;;;;;;;25.91;51.80;102409.66;5281392;28;20029;-70
2023/05/19 10:45:02;;;;;;;10.57;2.40;;;;;;;25.75;50.62;102408.97;5283759;28;20028;-71
2023/05/19 10:47:33;;;;;;;7.95;2.45;;;;;;;25.46;49.49;102402.78;5288869;28;20035;-70
2023/05/19 10:50:06;;;;;;;7.63;2.60;;;;;;;25.56;48.07;102407.88;5287198;28;20480;-70
2023/05/19 10:52:38;;;;;;;10.13;2.65;;;;;;;26.28;48.85;102405.53;5283778;28;20438;-71
2023/05/19 10:55:16;;;;;;;6.05;2.42;;;;;;;26.27;47.89;102409.31;5281133;28;20032;-70
2023/05/19 10:57:57;;;;;;;7.80;2.17;;;;;;;26.23;46.70;102413.53;5279454;28;20036;-71
2023/05/19 11:00:32;;;;;;;6.65;2.03;;;;;;;26.37;45.04;102403.44;5282908;28;20016;-71
2023/05/19 11:03:17;;;;;;;4.90;1.97;;;;;;;26.41;46.33;102402.78;5282080;28;20077;-71
2023/05/19 11:05:51;;;;;;;6.65;2.10;;;;;;;26.58;46.98;102391.44;5286837;28;20349;-70
2023/05/19 11:08:32;;;;;;;6.65;2.30;;;;;;;26.64;47.90;102396.06;5283846;28;20135;-70
2023/05/19 11:11:14;;;;;;;4.72;1.83;;;;;;;26.79;42.55;102396.69;5284049;28;20024;-71
2023/05/19 11:13:47;;;;;;;6.32;2.72;;;;;;;26.83;40.73;102399.84;5281890;28;20052;-70
2023/05/19 11:16:26;;;;;;;5.43;1.90;;;;;;;27.27;41.14;102395.50;5280538;28;20371;-70
2023/05/19 11:18:58;;;;;;;8.02;1.88;;;;;;;27.18;41.19;102399.53;5281157;28;20551;-71
2023/05/19 11:21:53;;;;;;;4.82;2.00;;;;;;;27.51;43.16;102390.38;5286076;28;20029;-71
2023/05/19 11:24:35;;;;;;;6.10;1.67;;;;;;;27.68;41.98;102396.16;5282097;28;20033;-71
2023/05/19 11:27:32;;;;;;;5.90;1.90;;;;;;;27.75;40.98;102387.91;5281059;28;20036;-72
2023/05/19 11:30:18;;;;;;;6.13;1.80;;;;;;;27.23;37.81;102391.50;5281559;28;20024;-71
2023/05/19 11:32:50;;;;;;;5.28;1.60;;;;;;;27.49;36.88;102387.84;5280393;28;21346;-71
2023/05/19 11:35:22;;;;;;;5.97;2.10;;;;;;;27.50;37.75;102392.25;5280540;28;20025;-71
2023/05/19 11:37:53;;;;;;;8.27;2.17;;;;;;;27.63;36.34;102390.50;5283645;28;20040;-70
2023/05/19 11:40:25;;;;;;;6.13;2.33;;;;;;;27.77;36.92;102392.13;5280745;28;20055;-70
2023/05/19 11:42:57;;;;;;;8.23;2.72;;;;;;;27.77;37.49;102389.38;5280254;28;20031;-69
2023/05/19 11:45:31;;;;;;;7.00;1.92;;;;;;;27.90;36.66;102383.78;5282238;28;20658;-69